Time;durP1;ratioP1;P1;durP2;ratioP2;P2;SDS_P1;SDS_P2;PMS_P1;PMS_P2;Temp;Humidity;BMP_temperature;BMP_pressure;BME280_temperature;BME280_humidity;BME280_pressure;Samples;Min_cycle;Max_cycle;Signal;HPM_P1;HPM_P2
2021/07/19 00:00:53;;;;;;;4.10;2.72;;;;;;;;;;5113557;28;20125;-86
2021/07/19 00:03:20;;;;;;;3.97;2.83;;;;;;;;;;5113186;28;20388;-86
2021/07/19 00:05:47;;;;;;;7.68;2.42;;;;;;;;;;5113332;28;20043;-86
2021/07/19 00:08:13;;;;;;;2.67;2.03;;;;;;;;;;5113129;28;20090;-86
2021/07/19 00:10:40;;;;;;;4.25;3.05;;;;;;;;;;5113202;28;20043;-86
2021/07/19 00:13:06;;;;;;;3.50;2.42;;;;;;;;;;5113562;27;20060;-86
2021/07/19 00:15:33;;;;;;;4.00;2.90;;;;;;;;;;5113299;28;20047;-86
2021/07/19 00:18:01;;;;;;;4.43;2.33;;;;;;;;;;5113110;28;20063;-86
2021/07/19 00:20:28;;;;;;;3.97;2.22;;;;;;;;;;5113096;28;20051;-87
2021/07/19 00:22:54;;;;;;;3.45;2.45;;;;;;;;;;5112915;28;20411;-86
2021/07/19 00:25:21;;;;;;;4.35;2.90;;;;;;;;;;5112819;28;20056;-86
2021/07/19 00:27:48;;;;;;;5.55;3.35;;;;;;;;;;5113047;28;20044;-86
2021/07/19 00:30:16;;;;;;;2.38;1.88;;;;;;;;;;5112841;28;20051;-86
2021/07/19 00:32:42;;;;;;;2.85;2.28;;;;;;;;;;5112890;28;20052;-86
2021/07/19 00:35:11;;;;;;;3.20;2.15;;;;;;;;;;5112797;28;20052;-87
2021/07/19 00:37:37;;;;;;;3.13;2.83;;;;;;;;;;5112399;28;20063;-86
2021/07/19 00:40:06;;;;;;;2.65;2.08;;;;;;;;;;5112552;28;20096;-86
2021/07/19 00:42:33;;;;;;;2.83;2.38;;;;;;;;;;5112725;28;20104;-87
2021/07/19 00:44:59;;;;;;;2.55;2.30;;;;;;;;;;5112567;28;20047;-87
2021/07/19 00:47:26;;;;;;;4.60;2.83;;;;;;;;;;5112756;28;20051;-86
2021/07/19 00:49:52;;;;;;;5.70;2.70;;;;;;;;;;5112351;28;20388;-86
2021/07/19 00:52:20;;;;;;;4.68;2.55;;;;;;;;;;5112209;28;20047;-87
2021/07/19 00:54:47;;;;;;;5.32;3.08;;;;;;;;;;5112566;28;20063;-86
2021/07/19 00:57:14;;;;;;;2.65;2.03;;;;;;;;;;5112542;28;20051;-86
2021/07/19 00:59:42;;;;;;;3.00;2.30;;;;;;;;;;5112083;28;20056;-85
2021/07/19 01:02:09;;;;;;;3.72;2.90;;;;;;;;;;5112190;28;20051;-86
2021/07/19 01:04:35;;;;;;;3.72;2.30;;;;;;;;;;5111968;28;20047;-86
2021/07/19 01:07:03;;;;;;;3.65;2.38;;;;;;;;;;5112244;28;20135;-86
2021/07/19 01:09:31;;;;;;;6.70;3.63;;;;;;;;;;5112057;28;20487;-86
2021/07/19 01:11:58;;;;;;;2.25;1.85;;;;;;;;;;5111903;28;20048;-86
2021/07/19 01:14:24;;;;;;;4.03;2.35;;;;;;;;;;5111908;28;20399;-86
2021/07/19 01:16:51;;;;;;;5.38;3.08;;;;;;;;;;5111307;28;20048;-86
2021/07/19 01:19:18;;;;;;;3.63;2.38;;;;;;;;;;5111656;28;20048;-86
2021/07/19 01:21:52;;;;;;;3.10;2.05;;;;;;;;;;5111788;28;20167;-86
2021/07/19 01:24:27;;;;;;;5.43;3.08;;;;;;;;;;5111898;28;20055;-86
2021/07/19 01:27:09;;;;;;;3.07;2.30;;;;;;;;;;5111856;28;20142;-86
2021/07/19 01:29:38;;;;;;;9.32;3.05;;;;;;;;;;5111576;28;20176;-86
2021/07/19 01:32:06;;;;;;;6.07;2.95;;;;;;;;;;5111847;28;20047;-86
2021/07/19 01:34:33;;;;;;;3.88;2.58;;;;;;;;;;5111664;28;20044;-86
2021/07/19 01:37:02;;;;;;;5.32;3.30;;;;;;;;;;5111579;28;20544;-86
2021/07/19 01:39:29;;;;;;;4.00;2.83;;;;;;;;;;5111420;28;20577;-86
2021/07/19 01:41:55;;;;;;;2.83;2.15;;;;;;;;;;5111603;28;20048;-86
2021/07/19 01:44:22;;;;;;;4.32;2.67;;;;;;;;;;5111333;28;20069;-86
2021/07/19 01:46:51;;;;;;;8.25;2.65;;;;;;;;;;5111395;28;20047;-86
2021/07/19 01:49:18;;;;;;;4.50;2.75;;;;;;;;;;5111359;28;20048;-86
2021/07/19 01:51:45;;;;;;;4.88;3.47;;;;;;;;;;5111470;28;20059;-86
2021/07/19 01:54:12;;;;;;;3.60;2.33;;;;;;;;;;5111379;28;20101;-86
2021/07/19 01:56:39;;;;;;;3.60;2.75;;;;;;;;;;5111245;28;20089;-85
2021/07/19 01:59:05;;;;;;;3.78;3.05;;;;;;;;;;5111135;28;20047;-86
2021/07/19 02:01:32;;;;;;;4.75;3.17;;;;;;;;;;5111417;28;20047;-86
2021/07/19 02:04:00;;;;;;;4.03;3.08;;;;;;;;;;5111312;28;20043;-86
2021/07/19 02:06:27;;;;;;;3.95;2.38;;;;;;;;;;5111338;28;20051;-85
2021/07/19 02:08:55;;;;;;;4.70;2.28;;;;;;;;;;5111316;28;20043;-86
2021/07/19 02:11:24;;;;;;;5.38;2.95;;;;;;;;;;5111041;28;20130;-86
2021/07/19 02:13:51;;;;;;;5.43;3.75;;;;;;;;;;5111108;28;20051;-86
2021/07/19 02:16:17;;;;;;;4.45;3.40;;;;;;;;;;5111072;28;20526;-86
2021/07/19 02:18:45;;;;;;;3.33;1.98;;;;;;;;;;5110971;28;20048;-85
2021/07/19 02:21:13;;;;;;;7.07;3.78;;;;;;;;;;5110945;28;20044;-86
2021/07/19 02:23:40;;;;;;;4.30;2.88;;;;;;;;;;5111538;28;20384;-86
2021/07/19 02:26:08;;;;;;;4.72;2.85;;;;;;;;;;5110922;28;20054;-86
2021/07/19 02:28:36;;;;;;;6.60;3.67;;;;;;;;;;5113656;28;20054;-86
2021/07/19 02:31:04;;;;;;;3.63;2.75;;;;;;;;;;5115332;28;20044;-86
2021/07/19 02:33:32;;;;;;;4.30;2.75;;;;;;;;;;5115157;28;20486;-86
2021/07/19 02:35:58;;;;;;;4.80;2.60;;;;;;;;;;5114967;28;20047;-86
2021/07/19 02:38:28;;;;;;;7.30;3.08;;;;;;;;;;5114777;28;20506;-85
2021/07/19 02:40:54;;;;;;;5.32;3.42;;;;;;;;;;5114925;28;20052;-86
2021/07/19 02:43:22;;;;;;;3.90;3.35;;;;;;;;;;5114815;28;20491;-86
2021/07/19 02:45:51;;;;;;;3.75;2.40;;;;;;;;;;5114803;28;20048;-86
2021/07/19 02:48:20;;;;;;;4.15;3.17;;;;;;;;;;5114851;28;20115;-85
2021/07/19 02:50:48;;;;;;;4.97;3.75;;;;;;;;;;5114690;28;20051;-86
2021/07/19 02:53:15;;;;;;;6.18;3.95;;;;;;;;;;5114930;28;20056;-85
2021/07/19 02:55:44;;;;;;;6.80;4.38;;;;;;;;;;5114673;28;20422;-86
2021/07/19 02:58:12;;;;;;;3.63;2.65;;;;;;;;;;5114692;28;20048;-86
2021/07/19 03:00:39;;;;;;;3.97;2.85;;;;;;;;;;5114511;28;20453;-86
2021/07/19 03:03:08;;;;;;;6.45;3.42;;;;;;;;;;5114555;28;20396;-86
2021/07/19 03:05:36;;;;;;;4.40;2.70;;;;;;;;;;5114278;28;20919;-86
2021/07/19 03:08:05;;;;;;;4.78;3.63;;;;;;;;;;5114436;28;20499;-86
2021/07/19 03:10:32;;;;;;;5.65;3.38;;;;;;;;;;5114565;28;20150;-86
2021/07/19 03:13:01;;;;;;;6.97;4.05;;;;;;;;;;5114265;28;20491;-86
2021/07/19 03:15:29;;;;;;;5.53;3.65;;;;;;;;;;5114314;28;20047;-86
2021/07/19 03:17:57;;;;;;;3.90;2.70;;;;;;;;;;5114029;28;20075;-86
2021/07/19 03:20:24;;;;;;;3.97;2.85;;;;;;;;;;5114035;28;20069;-85
2021/07/19 03:22:52;;;;;;;4.68;2.85;;;;;;;;;;4910692;27;5001961;-86
2021/07/19 03:25:23;;;;;;;8.10;4.38;;;;;;;;;;5105876;28;20047;-86
2021/07/19 03:27:49;;;;;;;5.35;2.80;;;;;;;;;;5093819;28;20056;-86
2021/07/19 03:30:18;;;;;;;5.82;2.80;;;;;;;;;;5093693;28;20544;-85
2021/07/19 03:32:45;;;;;;;6.38;3.65;;;;;;;;;;5093587;28;20057;-86
2021/07/19 03:35:12;;;;;;;5.57;3.58;;;;;;;;;;5093566;28;20052;-86
2021/07/19 03:37:39;;;;;;;6.35;3.95;;;;;;;;;;5093514;28;20137;-85
2021/07/19 03:40:06;;;;;;;6.10;3.70;;;;;;;;;;5092780;28;20090;-85
2021/07/19 03:42:34;;;;;;;5.10;4.15;;;;;;;;;;5093403;28;20044;-86
2021/07/19 03:45:00;;;;;;;7.40;4.75;;;;;;;;;;5093310;28;20449;-85
2021/07/19 03:47:28;;;;;;;5.60;4.07;;;;;;;;;;5093220;28;20099;-86
2021/07/19 03:49:55;;;;;;;6.07;3.40;;;;;;;;;;5093488;28;20059;-86
2021/07/19 03:52:23;;;;;;;4.43;3.63;;;;;;;;;;5093312;28;20051;-85
2021/07/19 03:54:50;;;;;;;7.03;4.18;;;;;;;;;;5093146;28;20484;-85
2021/07/19 03:57:16;;;;;;;6.60;3.67;;;;;;;;;;5093082;28;20055;-85
2021/07/19 03:59:43;;;;;;;4.65;2.90;;;;;;;;;;5092772;28;20055;-86
2021/07/19 04:02:13;;;;;;;7.95;4.00;;;;;;;;;;5093150;28;20049;-84
2021/07/19 04:04:44;;;;;;;5.25;3.75;;;;;;;;;;5093104;28;20055;-86
2021/07/19 04:07:12;;;;;;;6.60;4.03;;;;;;;;;;5092916;28;20504;-85
2021/07/19 04:09:39;;;;;;;5.25;4.03;;;;;;;;;;5092916;28;20487;-85
2021/07/19 04:12:06;;;;;;;5.45;3.38;;;;;;;;;;5092667;28;20044;-86
2021/07/19 04:14:32;;;;;;;4.35;3.95;;;;;;;;;;5092714;28;20052;-85
2021/07/19 04:16:59;;;;;;;6.05;3.97;;;;;;;;;;5092823;28;20411;-86
2021/07/19 04:19:26;;;;;;;6.15;3.72;;;;;;;;;;5092656;28;20105;-86
2021/07/19 04:21:54;;;;;;;5.55;3.97;;;;;;;;;;5092577;28;20044;-85
2021/07/19 04:24:20;;;;;;;4.90;2.42;;;;;;;;;;5092621;28;20044;-85
2021/07/19 04:26:47;;;;;;;2.70;2.05;;;;;;;;;;5092467;28;20074;-85
2021/07/19 04:29:13;;;;;;;6.05;3.35;;;;;;;;;;5092731;28;20089;-85
2021/07/19 04:31:40;;;;;;;5.45;3.22;;;;;;;;;;5092447;28;20055;-85
2021/07/19 04:34:07;;;;;;;7.40;3.83;;;;;;;;;;5092561;28;20044;-86
2021/07/19 04:36:34;;;;;;;4.97;2.72;;;;;;;;;;5092425;28;20059;-85
2021/07/19 04:39:02;;;;;;;5.32;3.45;;;;;;;;;;5092156;28;20504;-85
2021/07/19 04:41:30;;;;;;;7.88;4.15;;;;;;;;;;5092189;28;20117;-86
2021/07/19 04:43:56;;;;;;;3.88;3.17;;;;;;;;;;5092227;28;20048;-85
2021/07/19 04:46:23;;;;;;;4.25;2.97;;;;;;;;;;5092069;28;20052;-85
2021/07/19 04:48:49;;;;;;;7.10;4.53;;;;;;;;;;5092278;28;20052;-85
2021/07/19 04:51:16;;;;;;;6.93;3.15;;;;;;;;;;5091314;28;20109;-85
2021/07/19 04:53:43;;;;;;;6.57;3.55;;;;;;;;;;5091926;28;20052;-85
2021/07/19 04:56:12;;;;;;;5.68;4.30;;;;;;;;;;5089536;28;20059;-85
2021/07/19 04:58:39;;;;;;;7.07;3.33;;;;;;;;;;5091946;28;20109;-85
2021/07/19 05:01:07;;;;;;;5.25;3.88;;;;;;;;;;5091915;28;20051;-85
2021/07/19 05:03:36;;;;;;;7.25;4.78;;;;;;;;;;5091877;28;20044;-85
2021/07/19 05:06:04;;;;;;;9.65;3.90;;;;;;;;;;5091721;28;20056;-85
2021/07/19 05:08:31;;;;;;;7.25;4.97;;;;;;;;;;5091643;28;20488;-84
2021/07/19 05:10:57;;;;;;;7.75;4.45;;;;;;;;;;5091683;28;20105;-84
2021/07/19 05:13:27;;;;;;;6.20;4.47;;;;;;;;;;5091785;28;20472;-85
2021/07/19 05:15:53;;;;;;;7.18;4.70;;;;;;;;;;5091529;28;20138;-85
2021/07/19 05:18:20;;;;;;;14.02;6.47;;;;;;;;;;5091665;28;20063;-85
2021/07/19 05:20:48;;;;;;;11.50;5.65;;;;;;;;;;5091319;28;20400;-85
2021/07/19 05:23:21;;;;;;;11.93;5.80;;;;;;;;;;5091484;28;20102;-85
2021/07/19 05:25:48;;;;;;;10.10;5.78;;;;;;;;;;5091543;28;20044;-85
2021/07/19 05:28:15;;;;;;;9.18;6.28;;;;;;;;;;5091305;28;20073;-84
2021/07/19 05:30:44;;;;;;;7.20;5.30;;;;;;;;;;5088674;28;20051;-84
2021/07/19 05:33:10;;;;;;;9.23;5.13;;;;;;;;;;5091356;28;20052;-83
2021/07/19 05:35:37;;;;;;;11.02;5.97;;;;;;;;;;5091350;28;20051;-85
2021/07/19 05:38:05;;;;;;;6.65;4.97;;;;;;;;;;5091399;28;20063;-85
2021/07/19 05:40:32;;;;;;;10.98;7.18;;;;;;;;;;5091076;28;20495;-84
2021/07/19 05:42:59;;;;;;;6.72;4.78;;;;;;;;;;5091057;28;20549;-84
2021/07/19 05:45:25;;;;;;;8.98;6.20;;;;;;;;;;5091251;28;20130;-84
2021/07/19 05:47:54;;;;;;;11.65;6.55;;;;;;;;;;5091093;28;20404;-84
2021/07/19 05:50:21;;;;;;;11.27;3.97;;;;;;;;;;5090975;28;20048;-83
2021/07/19 05:52:47;;;;;;;6.57;5.10;;;;;;;;;;5091025;28;20487;-84
2021/07/19 05:55:14;;;;;;;7.90;4.78;;;;;;;;;;5091098;28;20090;-84
2021/07/19 05:57:40;;;;;;;7.07;5.20;;;;;;;;;;5091044;28;20048;-84
2021/07/19 06:00:10;;;;;;;6.85;5.15;;;;;;;;;;5090942;28;20126;-84
2021/07/19 06:02:36;;;;;;;7.05;4.05;;;;;;;;;;5090609;28;20074;-85
2021/07/19 06:05:05;;;;;;;5.57;4.43;;;;;;;;;;5090825;28;20048;-85
2021/07/19 06:07:31;;;;;;;8.27;5.30;;;;;;;;;;5090925;28;20044;-84
2021/07/19 06:09:58;;;;;;;12.27;4.38;;;;;;;;;;5090832;28;20499;-84
2021/07/19 06:12:24;;;;;;;4.78;3.88;;;;;;;;;;5090899;28;20047;-85
2021/07/19 06:14:51;;;;;;;6.75;4.47;;;;;;;;;;5090919;28;20052;-84
2021/07/19 06:17:17;;;;;;;6.85;4.85;;;;;;;;;;5090693;28;20040;-84
2021/07/19 06:19:44;;;;;;;5.22;4.38;;;;;;;;;;5090849;28;20056;-85
2021/07/19 06:22:12;;;;;;;6.90;4.85;;;;;;;;;;5090712;28;20055;-85
2021/07/19 06:24:39;;;;;;;8.13;4.50;;;;;;;;;;5090760;28;20052;-85
2021/07/19 06:27:06;;;;;;;5.68;3.88;;;;;;;;;;5090610;28;20055;-84
2021/07/19 06:29:32;;;;;;;7.03;4.38;;;;;;;;;;5090596;28;20048;-84
2021/07/19 06:32:00;;;;;;;8.82;5.30;;;;;;;;;;5090568;28;20044;-84
2021/07/19 06:34:27;;;;;;;6.50;4.93;;;;;;;;;;5090825;28;20052;-84
2021/07/19 06:36:54;;;;;;;7.35;4.85;;;;;;;;;;5090790;28;20052;-84
2021/07/19 06:39:21;;;;;;;5.70;4.50;;;;;;;;;;5090580;28;20048;-85
2021/07/19 06:41:48;;;;;;;5.95;3.58;;;;;;;;;;5090526;28;20044;-85
2021/07/19 06:44:15;;;;;;;6.47;4.10;;;;;;;;;;5090394;28;20048;-86
2021/07/19 06:46:41;;;;;;;7.53;4.60;;;;;;;;;;5090499;28;20052;-87
2021/07/19 06:49:08;;;;;;;5.78;4.13;;;;;;;;;;5090669;28;20123;-86
2021/07/19 06:51:34;;;;;;;5.85;4.18;;;;;;;;;;5090586;28;20051;-86
2021/07/19 06:54:01;;;;;;;6.07;4.45;;;;;;;;;;5090360;28;20090;-86
2021/07/19 06:56:31;;;;;;;6.20;3.85;;;;;;;;;;5090345;28;20040;-87
2021/07/19 06:58:58;;;;;;;4.50;3.15;;;;;;;;;;5090306;28;20063;-87
2021/07/19 07:01:24;;;;;;;8.70;4.15;;;;;;;;;;5090204;28;20055;-85
2021/07/19 07:03:51;;;;;;;4.18;3.20;;;;;;;;;;5090594;28;20093;-87
2021/07/19 07:06:17;;;;;;;4.97;3.60;;;;;;;;;;5090201;28;20044;-87
2021/07/19 07:08:44;;;;;;;7.70;4.65;;;;;;;;;;5090175;28;20044;-84
2021/07/19 07:11:10;;;;;;;5.45;3.90;;;;;;;;;;5090313;28;20055;-86
2021/07/19 07:13:40;;;;;;;6.78;3.72;;;;;;;;;;5090955;28;20388;-86
2021/07/19 07:16:06;;;;;;;7.75;4.38;;;;;;;;;;5094044;28;20062;-86
2021/07/19 07:18:33;;;;;;;6.20;4.38;;;;;;;;;;5093761;28;20488;-87
2021/07/19 07:20:59;;;;;;;6.97;4.70;;;;;;;;;;5093820;28;20048;-87
2021/07/19 07:23:26;;;;;;;6.20;4.15;;;;;;;;;;5093914;28;20441;-87
2021/07/19 07:25:52;;;;;;;6.07;4.70;;;;;;;;;;5093712;28;20082;-87
2021/07/19 07:28:18;;;;;;;7.25;5.43;;;;;;;;;;5091368;28;20097;-87
2021/07/19 07:30:46;;;;;;;9.18;5.13;;;;;;;;;;5093698;28;20069;-86
2021/07/19 07:33:13;;;;;;;5.78;4.20;;;;;;;;;;5093641;28;20044;-86
2021/07/19 07:35:41;;;;;;;5.22;3.83;;;;;;;;;;5093617;28;20071;-88
2021/07/19 07:38:08;;;;;;;4.93;3.47;;;;;;;;;;5093518;28;20578;-86
2021/07/19 07:40:34;;;;;;;4.03;2.97;;;;;;;;;;5093822;28;20048;-87
2021/07/19 07:43:01;;;;;;;4.90;3.55;;;;;;;;;;5092811;28;20091;-86
2021/07/19 07:45:27;;;;;;;8.95;3.85;;;;;;;;;;5093435;28;20460;-88
2021/07/19 07:47:55;;;;;;;7.35;3.92;;;;;;;;;;5093258;28;20055;-87
2021/07/19 07:50:22;;;;;;;4.97;3.53;;;;;;;;;;5092747;28;20093;-87
2021/07/19 07:52:48;;;;;;;7.28;4.32;;;;;;;;;;5092616;28;20055;-88
2021/07/19 07:55:15;;;;;;;9.48;4.93;;;;;;;;;;5092525;28;20417;-88
2021/07/19 07:57:41;;;;;;;6.13;4.43;;;;;;;;;;5078847;28;20097;-84
2021/07/19 08:00:12;;;;;;;4.45;2.95;;;;;;;;;;5092287;28;20044;-87
2021/07/19 08:02:38;;;;;;;4.00;2.97;;;;;;;;;;5091406;28;20075;-86
2021/07/19 08:05:07;;;;;;;7.20;3.50;;;;;;;;;;5092199;28;20052;-87
2021/07/19 08:07:33;;;;;;;3.95;2.90;;;;;;;;;;5092233;28;20048;-87
2021/07/19 08:10:00;;;;;;;6.25;3.60;;;;;;;;;;5091707;28;20048;-87
2021/07/19 08:12:26;;;;;;;4.32;3.15;;;;;;;;;;5091735;28;20040;-88
2021/07/19 08:14:53;;;;;;;5.90;2.95;;;;;;;;;;5089955;28;20044;-87
2021/07/19 08:17:20;;;;;;;3.78;2.70;;;;;;;;;;5092045;28;20099;-87
2021/07/19 08:19:46;;;;;;;12.13;3.80;;;;;;;;;;5092066;28;20089;-89
2021/07/19 08:22:14;;;;;;;5.43;4.00;;;;;;;;;;5092050;28;20047;-89
2021/07/19 08:24:41;;;;;;;4.07;3.13;;;;;;;;;;5092243;28;20055;-89
2021/07/19 08:27:08;;;;;;;6.80;2.58;;;;;;;;;;5091898;28;20545;-88
2021/07/19 08:29:34;;;;;;;5.03;3.53;;;;;;;;;;5091916;28;20044;-89
2021/07/19 08:32:01;;;;;;;4.80;3.70;;;;;;;;;;5091915;28;20068;-89
2021/07/19 08:34:27;;;;;;;4.72;3.63;;;;;;;;;;5091751;28;20067;-87
2021/07/19 08:36:55;;;;;;;4.85;3.80;;;;;;;;;;5092124;28;20090;-87
2021/07/19 08:39:23;;;;;;;4.20;3.03;;;;;;;;;;5092119;28;20416;-87
2021/07/19 08:41:50;;;;;;;3.97;3.00;;;;;;;;;;5092291;28;20055;-89
2021/07/19 08:44:17;;;;;;;3.65;2.60;;;;;;;;;;5092282;28;20048;-88
2021/07/19 08:46:44;;;;;;;5.47;2.67;;;;;;;;;;5092185;28;20044;-87
2021/07/19 08:49:10;;;;;;;5.20;3.63;;;;;;;;;;5092160;28;20484;-87
2021/07/19 08:51:39;;;;;;;4.88;3.83;;;;;;;;;;5092043;28;20048;-86
2021/07/19 08:54:05;;;;;;;6.03;3.10;;;;;;;;;;5092110;28;20056;-84
2021/07/19 08:56:34;;;;;;;4.75;2.80;;;;;;;;;;5091926;28;20085;-88
2021/07/19 08:59:01;;;;;;;4.35;2.85;;;;;;;;;;5091977;28;20484;-88
2021/07/19 09:01:30;;;;;;;4.85;3.08;;;;;;;;;;5091933;28;20048;-89
2021/07/19 09:03:56;;;;;;;4.82;3.45;;;;;;;;;;5091771;28;20051;-85
2021/07/19 09:06:23;;;;;;;8.43;3.33;;;;;;;;;;5092201;28;20117;-87
2021/07/19 09:08:50;;;;;;;4.63;3.45;;;;;;;;;;5091728;28;20040;-88
2021/07/19 09:11:18;;;;;;;3.72;2.90;;;;;;;;;;5091619;28;20048;-87
2021/07/19 09:13:58;;;;;;;4.53;3.42;;;;;;;;;;5091826;28;20056;-88
2021/07/19 09:16:25;;;;;;;4.55;3.15;;;;;;;;;;5091451;28;20062;-88
2021/07/19 09:19:04;;;;;;;4.78;2.80;;;;;;;;;;5091556;28;20044;-86
2021/07/19 09:21:31;;;;;;;6.07;3.25;;;;;;;;;;5091688;28;20126;-89
2021/07/19 09:24:02;;;;;;;12.50;3.35;;;;;;;;;;5091555;28;20414;-89
2021/07/19 09:26:30;;;;;;;3.75;2.72;;;;;;;;;;5091446;28;20557;-88
2021/07/19 09:28:58;;;;;;;4.32;2.80;;;;;;;;;;5091780;28;20044;-88
2021/07/19 09:31:31;;;;;;;7.10;3.65;;;;;;;;;;5090048;28;20043;-87
2021/07/19 09:33:59;;;;;;;4.63;2.47;;;;;;;;;;5090290;28;20040;-86
2021/07/19 09:36:27;;;;;;;7.57;3.78;;;;;;;;;;5090430;28;20048;-83
2021/07/19 09:39:03;;;;;;;6.78;4.45;;;;;;;;;;5091316;28;20139;-89
2021/07/19 09:41:30;;;;;;;4.57;3.20;;;;;;;;;;5091040;28;20497;-88
2021/07/19 09:43:57;;;;;;;4.45;3.10;;;;;;;;;;5091536;28;20384;-86
2021/07/19 09:46:33;;;;;;;6.45;2.88;;;;;;;;;;5086559;28;20089;-88
2021/07/19 09:49:00;;;;;;;4.80;3.42;;;;;;;;;;5090904;28;20074;-88
2021/07/19 09:51:29;;;;;;;6.45;3.33;;;;;;;;;;5090957;28;20047;-87
2021/07/19 09:53:56;;;;;;;5.38;3.40;;;;;;;;;;5090896;28;20048;-88
2021/07/19 09:56:23;;;;;;;17.65;3.05;;;;;;;;;;5091034;28;20047;-88
2021/07/19 09:58:50;;;;;;;6.07;2.28;;;;;;;;;;5090954;28;20044;-86
2021/07/19 10:01:26;;;;;;;4.60;3.42;;;;;;;;;;5090883;28;20052;-86
2021/07/19 10:04:03;;;;;;;4.70;2.53;;;;;;;;;;5090803;28;20039;-86
2021/07/19 10:06:30;;;;;;;3.95;2.53;;;;;;;;;;5090698;28;20055;-87
2021/07/19 10:08:57;;;;;;;4.63;3.03;;;;;;;;;;5090987;28;20048;-86
2021/07/19 10:11:24;;;;;;;3.38;2.50;;;;;;;;;;5090825;28;20044;-88
2021/07/19 10:13:52;;;;;;;4.85;3.30;;;;;;;;;;5090898;28;20484;-89
2021/07/19 10:16:19;;;;;;;4.35;2.72;;;;;;;;;;5090920;28;20048;-88
2021/07/19 10:18:47;;;;;;;3.13;2.58;;;;;;;;;;5091133;28;20531;-88
2021/07/19 10:21:15;;;;;;;3.88;2.00;;;;;;;;;;5090888;28;20146;-89
2021/07/19 10:23:42;;;;;;;4.43;3.10;;;;;;;;;;5090770;28;20142;-88
2021/07/19 10:26:10;;;;;;;4.18;2.22;;;;;;;;;;5090679;28;20052;-88
2021/07/19 10:28:37;;;;;;;8.57;4.43;;;;;;;;;;5090515;28;20089;-87
2021/07/19 10:31:04;;;;;;;4.15;2.05;;;;;;;;;;5090016;28;20195;-85
2021/07/19 10:33:31;;;;;;;5.35;3.45;;;;;;;;;;5090430;28;20105;-85
2021/07/19 10:35:58;;;;;;;3.67;2.45;;;;;;;;;;5090511;28;20465;-89
2021/07/19 10:38:27;;;;;;;3.97;2.33;;;;;;;;;;5090806;28;20059;-87
2021/07/19 10:40:54;;;;;;;3.13;2.83;;;;;;;;;;5090538;28;20408;-87
2021/07/19 10:43:21;;;;;;;3.42;2.10;;;;;;;;;;5090508;28;20474;-87
2021/07/19 10:45:50;;;;;;;5.97;3.35;;;;;;;;;;5090302;28;20044;-90
2021/07/19 10:48:23;;;;;;;6.75;2.33;;;;;;;;;;5091023;28;20044;-89
2021/07/19 10:50:50;;;;;;;9.93;2.05;;;;;;;;;;5094570;28;20478;-85
2021/07/19 10:53:19;;;;;;;3.45;2.17;;;;;;;;;;5094692;28;20130;-86
2021/07/19 10:55:57;;;;;;;3.33;1.92;;;;;;;;;;5094455;28;20140;-88
2021/07/19 10:58:29;;;;;;;3.83;2.28;;;;;;;;;;5094232;28;20052;-84
2021/07/19 11:00:55;;;;;;;3.30;1.90;;;;;;;;;;5094189;28;20488;-85
2021/07/19 11:03:23;;;;;;;4.80;2.28;;;;;;;;;;5094356;28;20102;-85
2021/07/19 11:05:51;;;;;;;5.47;2.80;;;;;;;;;;5094142;28;20487;-88
2021/07/19 11:08:23;;;;;;;5.13;3.25;;;;;;;;;;5094285;28;20105;-84
2021/07/19 11:10:52;;;;;;;4.90;2.63;;;;;;;;;;5093908;28;20052;-85
2021/07/19 11:13:26;;;;;;;8.88;3.03;;;;;;;;;;5094145;28;20047;-84
2021/07/19 11:15:52;;;;;;;3.50;2.15;;;;;;;;;;5094000;28;20047;-85
2021/07/19 11:18:19;;;;;;;3.63;1.95;;;;;;;;;;5093995;28;20052;-85
2021/07/19 11:20:48;;;;;;;4.97;2.80;;;;;;;;;;5094152;28;20395;-83
2021/07/19 11:23:15;;;;;;;3.65;2.30;;;;;;;;;;5093849;28;20044;-84
2021/07/19 11:25:43;;;;;;;2.85;2.13;;;;;;;;;;5094039;28;20051;-83
2021/07/19 11:28:18;;;;;;;3.05;2.13;;;;;;;;;;5093940;28;20048;-84
2021/07/19 11:31:00;;;;;;;4.95;3.15;;;;;;;;;;5093933;28;20048;-88
2021/07/19 11:33:31;;;;;;;4.68;2.95;;;;;;;;;;5093604;28;20048;-87
2021/07/19 11:35:57;;;;;;;3.50;2.08;;;;;;;;;;5093641;28;20044;-86
2021/07/19 11:38:24;;;;;;;4.18;2.75;;;;;;;;;;5093666;28;20104;-87
2021/07/19 11:40:50;;;;;;;3.17;2.25;;;;;;;;;;5093742;28;20109;-84
2021/07/19 11:43:20;;;;;;;4.95;2.72;;;;;;;;;;5093688;28;20059;-84
2021/07/19 11:45:48;;;;;;;8.73;2.85;;;;;;;;;;5093495;28;20414;-86
2021/07/19 11:48:14;;;;;;;4.35;2.92;;;;;;;;;;5093437;28;20127;-89
2021/07/19 11:50:41;;;;;;;5.93;3.40;;;;;;;;;;5093205;28;20105;-88
2021/07/19 11:53:08;;;;;;;3.53;2.47;;;;;;;;;;5093513;28;20048;-89
2021/07/19 11:55:35;;;;;;;8.05;3.92;;;;;;;;;;5093377;28;20059;-86
2021/07/19 11:58:02;;;;;;;4.28;3.65;;;;;;;;;;5093241;28;20090;-87
2021/07/19 12:00:32;;;;;;;3.92;2.55;;;;;;;;;;5092828;28;20056;-87
2021/07/19 12:03:00;;;;;;;4.13;2.38;;;;;;;;;;5092780;28;20129;-87
2021/07/19 12:05:26;;;;;;;4.63;2.70;;;;;;;;;;5093286;28;20449;-87
2021/07/19 12:07:57;;;;;;;4.53;2.33;;;;;;;;;;5092940;28;20055;-87
2021/07/19 12:10:24;;;;;;;4.82;2.53;;;;;;;;;;5092964;28;20067;-87
2021/07/19 12:12:50;;;;;;;3.50;2.38;;;;;;;;;;5092948;28;20044;-88
2021/07/19 12:15:17;;;;;;;3.53;2.42;;;;;;;;;;5092882;28;20086;-84
2021/07/19 12:17:45;;;;;;;4.80;2.83;;;;;;;;;;5092789;28;20109;-86
2021/07/19 12:20:12;;;;;;;4.07;2.72;;;;;;;;;;5092910;28;20113;-84
2021/07/19 12:22:39;;;;;;;5.78;3.13;;;;;;;;;;5092613;28;20121;-85
2021/07/19 12:25:06;;;;;;;3.47;2.40;;;;;;;;;;5092755;28;20051;-84
2021/07/19 12:27:33;;;;;;;7.78;4.57;;;;;;;;;;5092805;28;20114;-86
2021/07/19 12:29:59;;;;;;;7.00;4.07;;;;;;;;;;5092392;28;20041;-86
2021/07/19 12:32:26;;;;;;;3.95;2.45;;;;;;;;;;5092348;28;20508;-86
2021/07/19 12:34:54;;;;;;;7.07;3.40;;;;;;;;;;5092570;28;20097;-85
2021/07/19 12:37:21;;;;;;;5.43;2.45;;;;;;;;;;5092495;28;20044;-83
2021/07/19 12:39:48;;;;;;;3.53;2.47;;;;;;;;;;5092524;28;20048;-82
2021/07/19 12:42:16;;;;;;;5.93;3.35;;;;;;;;;;5092306;28;20052;-83
2021/07/19 12:44:45;;;;;;;4.70;3.30;;;;;;;;;;5092189;28;20056;-85
2021/07/19 12:47:15;;;;;;;5.80;3.92;;;;;;;;;;5092250;28;20089;-86
2021/07/19 12:49:42;;;;;;;6.90;2.97;;;;;;;;;;5089128;28;20040;-87
2021/07/19 12:52:15;;;;;;;4.18;2.30;;;;;;;;;;5088002;28;20044;-85
2021/07/19 12:54:43;;;;;;;10.02;2.90;;;;;;;;;;5092099;28;20446;-86
2021/07/19 12:57:09;;;;;;;4.47;2.90;;;;;;;;;;5091842;28;20052;-83
2021/07/19 12:59:37;;;;;;;5.13;3.50;;;;;;;;;;5091941;28;20052;-82
2021/07/19 13:02:04;;;;;;;5.60;2.78;;;;;;;;;;5091787;28;20048;-87
2021/07/19 13:04:30;;;;;;;4.38;2.65;;;;;;;;;;5091893;28;20044;-81
2021/07/19 13:06:57;;;;;;;3.88;2.58;;;;;;;;;;5091871;28;20484;-83
2021/07/19 13:09:26;;;;;;;5.25;3.45;;;;;;;;;;5091743;28;20048;-81
2021/07/19 13:11:59;;;;;;;4.43;2.60;;;;;;;;;;5090852;28;20044;-81
2021/07/19 13:14:26;;;;;;;5.65;3.00;;;;;;;;;;5091678;28;20518;-80
2021/07/19 13:16:57;;;;;;;6.80;3.28;;;;;;;;;;5091644;28;20101;-81
2021/07/19 13:19:29;;;;;;;3.45;2.95;;;;;;;;;;5092117;28;20044;-81
2021/07/19 13:21:56;;;;;;;3.58;2.50;;;;;;;;;;5091423;28;20052;-82
2021/07/19 13:24:22;;;;;;;3.65;2.60;;;;;;;;;;5091198;28;20498;-80
2021/07/19 13:26:53;;;;;;;7.43;2.85;;;;;;;;;;5091427;28;20105;-81
2021/07/19 13:29:19;;;;;;;3.97;2.38;;;;;;;;;;5091546;28;20047;-80
2021/07/19 13:31:46;;;;;;;5.82;3.03;;;;;;;;;;5091403;28;20487;-80
2021/07/19 13:34:16;;;;;;;3.80;3.08;;;;;;;;;;5091391;28;20044;-83
2021/07/19 13:36:46;;;;;;;5.75;2.72;;;;;;;;;;5090992;28;20040;-80
2021/07/19 13:39:13;;;;;;;3.58;2.65;;;;;;;;;;5091509;28;20058;-81
2021/07/19 13:41:39;;;;;;;3.40;2.28;;;;;;;;;;5091394;28;20048;-82
2021/07/19 13:44:07;;;;;;;4.65;3.45;;;;;;;;;;5089167;28;20044;-80
2021/07/19 13:46:34;;;;;;;4.47;3.03;;;;;;;;;;5091047;28;20511;-79
2021/07/19 13:49:00;;;;;;;3.05;2.30;;;;;;;;;;5091209;28;20487;-79
2021/07/19 13:51:27;;;;;;;3.67;2.63;;;;;;;;;;5090701;28;20044;-80
2021/07/19 13:53:53;;;;;;;5.07;3.42;;;;;;;;;;5091090;28;20047;-81
2021/07/19 13:56:20;;;;;;;4.30;3.13;;;;;;;;;;5080424;28;20441;-80
2021/07/19 13:58:47;;;;;;;3.67;3.00;;;;;;;;;;5091146;28;20043;-81
2021/07/19 14:01:14;;;;;;;6.68;3.40;;;;;;;;;;5091017;28;20134;-79
2021/07/19 14:03:41;;;;;;;5.53;3.78;;;;;;;;;;5090926;28;21023;-80
2021/07/19 14:06:10;;;;;;;3.17;2.67;;;;;;;;;;5090886;28;20048;-81
2021/07/19 14:08:37;;;;;;;4.30;2.65;;;;;;;;;;5091048;28;20051;-81
2021/07/19 14:11:03;;;;;;;6.38;3.20;;;;;;;;;;5090980;28;20447;-82
2021/07/19 14:13:30;;;;;;;7.95;3.38;;;;;;;;;;5091044;28;20457;-81
2021/07/19 14:15:56;;;;;;;9.02;3.17;;;;;;;;;;5090905;28;20056;-83
2021/07/19 14:18:24;;;;;;;7.50;4.00;;;;;;;;;;5090516;28;20048;-82
2021/07/19 14:20:51;;;;;;;7.35;3.35;;;;;;;;;;5090697;28;20075;-80
2021/07/19 14:23:17;;;;;;;3.60;2.60;;;;;;;;;;5079722;28;20105;-82
2021/07/19 14:25:44;;;;;;;4.25;2.83;;;;;;;;;;5074652;28;20044;-81
2021/07/19 14:28:10;;;;;;;6.70;3.33;;;;;;;;;;5074994;28;20049;-82
2021/07/19 14:30:37;;;;;;;5.93;3.28;;;;;;;;;;5074680;28;20052;-81
2021/07/19 14:33:04;;;;;;;4.25;2.67;;;;;;;;;;5086649;28;20048;-81
2021/07/19 14:35:32;;;;;;;4.47;3.65;;;;;;;;;;5095175;28;20392;-80
2021/07/19 14:37:58;;;;;;;6.38;3.28;;;;;;;;;;5094971;28;20147;-80
2021/07/19 14:40:25;;;;;;;5.55;3.05;;;;;;;;;;5094772;28;20048;-80
2021/07/19 14:42:51;;;;;;;6.82;3.30;;;;;;;;;;5094609;28;20052;-79
2021/07/19 14:45:18;;;;;;;11.63;3.45;;;;;;;;;;5094551;28;20056;-80